Time;durP1;ratioP1;P1;durP2;ratioP2;P2;SDS_P1;SDS_P2;PMS_P1;PMS_P2;Temp;Humidity;BMP_temperature;BMP_pressure;BME280_temperature;BME280_humidity;BME280_pressure;Samples;Min_cycle;Max_cycle;Signal;HPM_P1;HPM_P2
2023/07/12 00:13:11;;;;;;;;;;;;;;;23.65;73.51;97178.45;616766;229;37154;-61
2023/07/12 00:15:40;;;;;;;;;;;;;;;23.65;73.50;97175.77;616592;229;64776;-63
2023/07/12 00:18:15;;;;;;;;;;;;;;;23.66;73.51;97180.05;616718;229;64390;-63
2023/07/12 00:20:43;;;;;;;;;;;;;;;23.66;73.46;97176.56;616459;230;62653;-63
2023/07/12 00:23:12;;;;;;;;;;;;;;;23.66;73.46;97174.67;616444;230;66602;-63
2023/07/12 00:25:39;;;;;;;;;;;;;;;23.66;73.42;97173.88;616550;230;66511;-63
2023/07/12 00:28:11;;;;;;;;;;;;;;;23.66;73.41;97172.00;616552;226;65162;-63
2023/07/12 00:30:39;;;;;;;;;;;;;;;23.67;73.38;97173.58;616152;229;65442;-63
2023/07/12 00:33:09;;;;;;;;;;;;;;;23.67;73.37;97173.58;616303;226;66996;-63
2023/07/12 00:35:37;;;;;;;;;;;;;;;23.68;73.30;97177.88;616640;229;65033;-63
2023/07/12 00:38:06;;;;;;;;;;;;;;;23.69;73.28;97178.68;616725;230;64514;-63
2023/07/12 00:40:41;;;;;;;;;;;;;;;23.69;73.27;97174.11;616644;230;66642;-63
2023/07/12 00:43:13;;;;;;;;;;;;;;;23.70;73.29;97164.16;616653;230;62805;-64
2023/07/12 00:45:41;;;;;;;;;;;;;;;23.70;73.26;97174.90;616489;230;67655;-63
2023/07/12 00:48:12;;;;;;;;;;;;;;;23.70;73.19;97164.96;616658;230;66760;-64
2023/07/12 00:50:40;;;;;;;;;;;;;;;23.70;73.20;97164.96;616716;229;62913;-63
2023/07/12 00:53:18;;;;;;;;;;;;;;;23.70;73.16;97170.33;616616;230;65322;-63
2023/07/12 00:56:02;;;;;;;;;;;;;;;23.70;73.15;97162.28;616646;229;66218;-63
2023/07/12 00:58:31;;;;;;;;;;;;;;;23.70;73.15;97161.48;616474;229;64739;-63
2023/07/12 01:01:00;;;;;;;;;;;;;;;23.70;73.10;97156.91;616659;230;64594;-62
2023/07/12 01:03:29;;;;;;;;;;;;;;;23.70;73.15;97170.33;616589;229;66834;-61
2023/07/12 01:05:57;;;;;;;;;;;;;;;23.70;73.12;97159.59;616557;229;64955;-61
2023/07/12 01:08:24;;;;;;;;;;;;;;;23.69;73.11;97152.64;616715;230;66767;-61
2023/07/12 01:10:52;;;;;;;;;;;;;;;23.70;73.08;97154.23;616569;229;66655;-61
2023/07/12 01:13:21;;;;;;;;;;;;;;;23.70;73.07;97153.44;616454;229;65697;-61
2023/07/12 01:15:49;;;;;;;;;;;;;;;23.70;73.06;97146.17;616570;230;66592;-61
2023/07/12 01:18:17;;;;;;;;;;;;;;;23.69;73.02;97147.27;616635;229;66731;-62
2023/07/12 01:20:45;;;;;;;;;;;;;;;23.70;73.01;97150.75;611369;230;64316;-61
2023/07/12 01:23:13;;;;;;;;;;;;;;;23.70;73.04;97151.55;616666;229;64395;-62
2023/07/12 01:25:42;;;;;;;;;;;;;;;23.69;73.02;97152.64;616506;229;66829;-61
2023/07/12 01:28:10;;;;;;;;;;;;;;;23.71;73.01;97144.34;616598;229;64875;-61
2023/07/12 01:30:38;;;;;;;;;;;;;;;23.72;73.03;97142.45;616582;230;67269;-61
2023/07/12 01:33:05;;;;;;;;;;;;;;;23.71;72.99;97155.08;616684;230;66855;-61
2023/07/12 01:35:33;;;;;;;;;;;;;;;23.70;73.00;97148.86;616265;226;65604;-62
2023/07/12 01:38:01;;;;;;;;;;;;;;;23.70;72.99;97159.59;616666;230;66699;-61
2023/07/12 01:40:28;;;;;;;;;;;;;;;23.72;73.01;97155.88;616652;230;66644;-61
2023/07/12 01:42:56;;;;;;;;;;;;;;;23.70;72.98;97156.12;616662;230;64852;-61
2023/07/12 01:45:23;;;;;;;;;;;;;;;23.69;72.98;97141.91;616724;230;66873;-61
2023/07/12 01:47:51;;;;;;;;;;;;;;;23.70;72.94;97142.70;616503;229;66626;-61
2023/07/12 01:50:20;;;;;;;;;;;;;;;23.69;72.96;97141.91;616654;229;65093;-63
2023/07/12 01:52:47;;;;;;;;;;;;;;;23.70;72.97;97143.50;616569;229;66718;-61
2023/07/12 01:55:15;;;;;;;;;;;;;;;23.70;72.99;97151.55;616649;230;64697;-61
2023/07/12 01:57:44;;;;;;;;;;;;;;;23.70;72.98;97142.70;616236;229;62614;-62
2023/07/12 02:00:12;;;;;;;;;;;;;;;23.69;72.98;97136.54;616684;229;66903;-61
2023/07/12 02:02:46;;;;;;;;;;;;;;;23.70;73.00;97142.70;616690;230;66764;-60
2023/07/12 02:05:14;;;;;;;;;;;;;;;23.70;72.98;97143.50;616650;230;65901;-60
2023/07/12 02:07:41;;;;;;;;;;;;;;;23.70;72.98;97148.86;616683;229;66745;-60
2023/07/12 02:10:13;;;;;;;;;;;;;;;23.69;72.99;97147.27;616709;230;66357;-60
2023/07/12 02:12:41;;;;;;;;;;;;;;;23.70;72.95;97154.23;616325;229;64962;-61
2023/07/12 02:15:10;;;;;;;;;;;;;;;23.69;72.98;97155.33;616614;229;65395;-61
2023/07/12 02:17:38;;;;;;;;;;;;;;;23.70;72.95;97146.17;616644;229;67097;-61
2023/07/12 02:20:07;;;;;;;;;;;;;;;23.70;72.95;97156.91;616468;229;65008;-61
2023/07/12 02:22:37;;;;;;;;;;;;;;;23.70;72.92;97158.80;616620;230;66941;-61
2023/07/12 02:25:05;;;;;;;;;;;;;;;23.70;72.92;97153.44;616583;230;66829;-61
2023/07/12 02:27:34;;;;;;;;;;;;;;;23.69;72.92;97155.33;616607;229;44004;-61
2023/07/12 02:30:02;;;;;;;;;;;;;;;23.70;72.89;97154.23;616627;229;66949;-61
2023/07/12 02:32:29;;;;;;;;;;;;;;;23.69;72.91;97163.38;616648;229;66711;-61
2023/07/12 02:34:57;;;;;;;;;;;;;;;23.71;72.89;97160.45;616672;229;65658;-61
2023/07/12 02:37:24;;;;;;;;;;;;;;;23.69;72.91;97160.69;616581;229;66664;-61
2023/07/12 02:39:52;;;;;;;;;;;;;;;23.69;72.93;97160.69;616721;230;66686;-61
2023/07/12 02:42:19;;;;;;;;;;;;;;;23.69;72.91;97163.38;616499;229;65042;-61
2023/07/12 02:44:47;;;;;;;;;;;;;;;23.70;72.90;97177.58;616666;229;67142;-61
2023/07/12 02:47:14;;;;;;;;;;;;;;;23.68;72.89;97177.88;616492;229;66897;-61
2023/07/12 02:49:42;;;;;;;;;;;;;;;23.69;72.90;97178.68;616670;229;65040;-61
2023/07/12 02:52:10;;;;;;;;;;;;;;;23.69;72.87;97182.16;616692;230;66888;-61
2023/07/12 02:54:37;;;;;;;;;;;;;;;23.69;72.90;97187.52;616681;230;66924;-61
2023/07/12 02:57:05;;;;;;;;;;;;;;;23.69;72.86;97179.47;616563;229;65100;-61
2023/07/12 02:59:32;;;;;;;;;;;;;;;23.68;72.86;97183.25;616277;229;66772;-61
2023/07/12 03:02:02;;;;;;;;;;;;;;;23.68;72.85;97179.74;616709;230;66921;-61
2023/07/12 03:04:30;;;;;;;;;;;;;;;23.69;72.88;97184.05;616663;230;65028;-61
2023/07/12 03:06:57;;;;;;;;;;;;;;;23.69;72.90;97184.84;616620;230;66825;-62
2023/07/12 03:09:24;;;;;;;;;;;;;;;23.68;72.89;97185.94;616683;229;66848;-63
2023/07/12 03:11:52;;;;;;;;;;;;;;;23.68;72.85;97191.30;616700;229;65370;-63
2023/07/12 03:14:21;;;;;;;;;;;;;;;23.69;72.84;97189.41;616177;230;66932;-62
2023/07/12 03:16:48;;;;;;;;;;;;;;;23.68;72.84;97191.30;616190;230;66944;-63
2023/07/12 03:19:16;;;;;;;;;;;;;;;23.69;72.83;97200.14;616165;230;62841;-63
2023/07/12 03:21:45;;;;;;;;;;;;;;;23.68;72.78;97199.34;616133;230;64829;-64
2023/07/12 03:24:13;;;;;;;;;;;;;;;23.67;72.80;97192.36;616199;230;66544;-63
2023/07/12 03:26:41;;;;;;;;;;;;;;;23.68;72.78;97195.84;616157;230;65109;-63
2023/07/12 03:29:09;;;;;;;;;;;;;;;23.68;72.78;97196.66;616135;230;66886;-61
2023/07/12 03:31:36;;;;;;;;;;;;;;;23.68;72.79;97199.34;616122;230;67203;-61
2023/07/12 03:34:04;;;;;;;;;;;;;;;23.68;72.79;97193.16;616161;230;65104;-61
2023/07/12 03:36:32;;;;;;;;;;;;;;;23.67;72.78;97203.09;616142;230;66721;-61
2023/07/12 03:39:00;;;;;;;;;;;;;;;23.68;72.82;97204.72;616188;230;66836;-61
2023/07/12 03:41:28;;;;;;;;;;;;;;;23.67;72.81;97203.09;616160;230;64895;-61
2023/07/12 03:43:55;;;;;;;;;;;;;;;23.67;72.83;97205.78;616150;230;66944;-61
2023/07/12 03:46:23;;;;;;;;;;;;;;;23.68;72.77;97209.25;616160;230;66806;-61
2023/07/12 03:48:50;;;;;;;;;;;;;;;23.67;72.77;97208.46;616185;230;65016;-61
2023/07/12 03:51:22;;;;;;;;;;;;;;;23.67;72.78;97219.19;616170;230;66686;-61
2023/07/12 03:53:47;;;;;;;;;;;;;;;23.68;72.81;97214.62;616023;230;67002;-61
2023/07/12 03:56:14;;;;;;;;;;;;;;;23.67;72.84;97215.72;616146;230;62968;-61
2023/07/12 03:58:42;;;;;;;;;;;;;;;23.67;72.78;97221.88;616143;230;64939;-61
2023/07/12 04:01:10;;;;;;;;;;;;;;;23.67;72.83;97210.35;616164;227;66806;-61
2023/07/12 04:03:38;;;;;;;;;;;;;;;23.65;72.82;97216.02;616147;230;64968;-61
2023/07/12 04:06:07;;;;;;;;;;;;;;;23.67;72.81;97213.83;616170;227;66935;-61
2023/07/12 04:08:35;;;;;;;;;;;;;;;23.66;72.82;97216.81;616176;230;66905;-61
2023/07/12 04:11:03;;;;;;;;;;;;;;;23.67;72.80;97218.40;616162;230;65021;-61
2023/07/12 04:13:31;;;;;;;;;;;;;;;23.66;72.82;97222.17;616549;230;66692;-61
2023/07/12 04:15:59;;;;;;;;;;;;;;;23.67;72.81;97218.40;616741;230;64485;-61
2023/07/12 04:18:28;;;;;;;;;;;;;;;23.67;72.83;97223.77;616747;230;62752;-61
2023/07/12 04:20:58;;;;;;;;;;;;;;;23.67;72.78;97226.45;616741;230;64523;-61
2023/07/12 04:23:25;;;;;;;;;;;;;;;23.66;72.79;97222.97;616728;230;64248;-61
2023/07/12 04:26:01;;;;;;;;;;;;;;;23.66;72.85;97222.97;616691;230;64855;-61
2023/07/12 04:28:28;;;;;;;;;;;;;;;23.67;72.85;97226.45;616510;228;64424;-61
2023/07/12 04:30:56;;;;;;;;;;;;;;;23.66;72.81;97227.55;616751;230;64343;-61
2023/07/12 04:33:24;;;;;;;;;;;;;;;23.65;72.83;97229.44;616745;227;64854;-61
2023/07/12 04:35:52;;;;;;;;;;;;;;;23.65;72.85;97220.56;616712;230;66659;-63
2023/07/12 04:38:20;;;;;;;;;;;;;;;23.65;72.84;97228.61;616739;230;64461;-62
2023/07/12 04:40:52;;;;;;;;;;;;;;;23.66;72.91;97228.34;616714;230;63023;-63
2023/07/12 04:43:20;;;;;;;;;;;;;;;23.66;72.85;97222.97;616721;230;67027;-62
2023/07/12 04:45:48;;;;;;;;;;;;;;;23.67;72.86;97218.40;616693;230;67099;-61
2023/07/12 04:48:15;;;;;;;;;;;;;;;23.65;72.87;97226.75;616725;230;65102;-62
2023/07/12 04:50:43;;;;;;;;;;;;;;;23.65;72.86;97224.06;616735;230;66788;-62
2023/07/12 04:53:12;;;;;;;;;;;;;;;23.66;72.86;97222.97;616711;230;66795;-62
2023/07/12 04:55:39;;;;;;;;;;;;;;;23.66;72.84;97224.86;616723;230;65360;-62
2023/07/12 04:58:07;;;;;;;;;;;;;;;23.66;72.86;97222.17;616719;230;64697;-62
2023/07/12 05:00:34;;;;;;;;;;;;;;;23.66;72.86;97228.34;616725;230;64715;-62
2023/07/12 05:03:02;;;;;;;;;;;;;;;23.65;72.89;97226.75;616761;230;63789;-62
2023/07/12 05:05:29;;;;;;;;;;;;;;;23.66;72.87;97227.55;616689;230;64470;-62
2023/07/12 05:07:57;;;;;;;;;;;;;;;23.65;72.90;97226.75;616726;230;67026;-63
2023/07/12 05:10:24;;;;;;;;;;;;;;;23.65;72.91;97228.61;616714;230;65033;-62
2023/07/12 05:12:52;;;;;;;;;;;;;;;23.66;72.89;97238.27;616408;230;67376;-62
2023/07/12 05:15:20;;;;;;;;;;;;;;;23.65;72.90;97232.11;616126;230;66777;-63
2023/07/12 05:17:47;;;;;;;;;;;;;;;23.65;72.89;97226.75;621827;225;65031;-62
2023/07/12 05:20:16;;;;;;;;;;;;;;;23.65;72.90;97225.92;622479;225;66941;-62
2023/07/12 05:22:44;;;;;;;;;;;;;;;23.66;72.96;97222.97;617570;225;66869;-63
2023/07/12 05:25:11;;;;;;;;;;;;;;;23.65;72.92;97229.44;616054;230;65031;-62
2023/07/12 05:27:39;;;;;;;;;;;;;;;23.64;72.93;97225.13;616133;230;66756;-62
2023/07/12 05:30:07;;;;;;;;;;;;;;;23.66;72.98;97224.86;619972;227;66630;-63
2023/07/12 05:32:34;;;;;;;;;;;;;;;23.66;72.97;97225.66;623165;227;64984;-62
2023/07/12 05:35:03;;;;;;;;;;;;;;;23.65;72.94;97229.44;623006;225;67004;-62
2023/07/12 05:37:31;;;;;;;;;;;;;;;23.66;73.05;97222.17;623209;227;66621;-63
2023/07/12 05:39:58;;;;;;;;;;;;;;;23.64;72.96;97225.13;623020;227;65006;-63
2023/07/12 05:42:26;;;;;;;;;;;;;;;23.66;73.00;97227.55;621196;227;66765;-63
2023/07/12 05:44:53;;;;;;;;;;;;;;;23.66;73.00;97232.91;619193;225;66934;-63
2023/07/12 05:47:20;;;;;;;;;;;;;;;23.65;73.01;97232.11;622901;227;63048;-63
2023/07/12 05:49:48;;;;;;;;;;;;;;;23.65;72.98;97226.75;623191;227;64302;-64
2023/07/12 05:52:15;;;;;;;;;;;;;;;23.65;73.00;97223.24;623164;227;66469;-63
2023/07/12 05:54:43;;;;;;;;;;;;;;;23.65;73.08;97229.44;623113;227;65031;-63
2023/07/12 05:57:10;;;;;;;;;;;;;;;23.65;73.01;97225.92;623146;227;66849;-62
2023/07/12 05:59:38;;;;;;;;;;;;;;;23.66;73.06;97224.86;623046;227;67110;-63
2023/07/12 06:02:08;;;;;;;;;;;;;;;23.66;73.07;97219.50;622961;227;64987;-62
2023/07/12 06:04:35;;;;;;;;;;;;;;;23.65;73.08;97215.19;623206;227;66960;-64
2023/07/12 06:07:02;;;;;;;;;;;;;;;23.65;73.09;97215.19;622957;225;64643;-63
2023/07/12 06:09:30;;;;;;;;;;;;;;;23.65;73.09;97207.97;620484;225;62975;-63
2023/07/12 06:11:57;;;;;;;;;;;;;;;23.64;73.15;97202.88;619245;227;64631;-63
2023/07/12 06:14:25;;;;;;;;;;;;;;;23.64;73.17;97206.34;619635;227;66762;-63
2023/07/12 06:16:52;;;;;;;;;;;;;;;23.64;73.56;97213.61;620077;227;65028;-68
2023/07/12 06:19:19;;;;;;;;;;;;;;;23.65;73.51;97215.19;621377;227;66671;-63
2023/07/12 06:21:47;;;;;;;;;;;;;;;23.66;73.56;97214.13;619061;225;64711;-61
2023/07/12 06:24:15;;;;;;;;;;;;;;;23.66;73.56;97214.92;620723;225;62886;-64
2023/07/12 06:26:42;;;;;;;;;;;;;;;23.67;73.63;97219.19;617784;227;67184;-64
2023/07/12 06:29:10;;;;;;;;;;;;;;;23.67;73.73;97211.14;622171;227;66860;-69
2023/07/12 06:31:37;;;;;;;;;;;;;;;23.68;73.77;97225.35;620985;225;65065;-63
2023/07/12 06:34:05;;;;;;;;;;;;;;;23.68;73.80;97210.08;618799;225;66917;-59
2023/07/12 06:36:33;;;;;;;;;;;;;;;23.68;73.74;97207.39;617167;225;66769;-64
2023/07/12 06:39:01;;;;;;;;;;;;;;;23.69;73.28;97211.67;618982;225;63007;-63
2023/07/12 06:41:28;;;;;;;;;;;;;;;23.70;73.56;97220.52;621131;225;64827;-60
2023/07/12 06:43:56;;;;;;;;;;;;;;;23.70;73.10;97221.30;621758;225;66774;-61
2023/07/12 06:46:24;;;;;;;;;;;;;;;23.72;73.60;97214.91;621442;225;65033;-60
2023/07/12 06:48:53;;;;;;;;;;;;;;;23.70;73.63;97213.26;619779;225;66925;-64
2023/07/12 06:51:20;;;;;;;;;;;;;;;23.73;73.30;97217.29;618518;225;67264;-59
2023/07/12 06:53:48;;;;;;;;;;;;;;;23.77;72.99;97217.55;620745;225;65116;-60
2023/07/12 06:56:15;;;;;;;;;;;;;;;23.77;72.48;97218.34;615347;227;66919;-60
2023/07/12 06:58:43;;;;;;;;;;;;;;;23.77;72.81;97212.97;617924;225;69118;-60
2023/07/12 07:01:11;;;;;;;;;;;;;;;23.77;72.82;97215.66;616630;225;65033;-60
2023/07/12 07:03:38;;;;;;;;;;;;;;;23.77;72.96;97217.55;616036;230;66936;-60
2023/07/12 07:06:06;;;;;;;;;;;;;;;23.76;73.59;97221.29;616008;230;66668;-60
2023/07/12 07:08:33;;;;;;;;;;;;;;;23.75;73.61;97214.34;616021;230;65884;-60
2023/07/12 07:11:01;;;;;;;;;;;;;;;23.75;73.65;97207.08;616004;230;66896;-60
2023/07/12 07:13:28;;;;;;;;;;;;;;;23.75;73.64;97214.34;616371;230;67078;-60
2023/07/12 07:15:56;;;;;;;;;;;;;;;23.75;73.68;97206.28;616544;230;62903;-60
2023/07/12 07:18:23;;;;;;;;;;;;;;;23.76;73.70;97210.56;616602;230;64492;-60
2023/07/12 07:20:52;;;;;;;;;;;;;;;23.76;73.67;97207.88;616572;230;66908;-60
2023/07/12 07:23:20;;;;;;;;;;;;;;;23.76;73.68;97213.24;616555;230;65114;-60
2023/07/12 07:25:47;;;;;;;;;;;;;;;23.76;73.65;97215.92;616571;230;66532;-60
2023/07/12 07:28:15;;;;;;;;;;;;;;;23.76;73.70;97211.35;616557;230;67523;-60
2023/07/12 07:30:42;;;;;;;;;;;;;;;23.77;73.66;97209.49;616561;230;65258;-63
2023/07/12 07:33:10;;;;;;;;;;;;;;;23.77;73.59;97212.17;616615;230;64430;-60
2023/07/12 07:35:37;;;;;;;;;;;;;;;23.78;73.41;97224.50;616590;230;64709;-61
2023/07/12 07:38:05;;;;;;;;;;;;;;;23.79;73.66;97220.72;616519;230;62835;-59
2023/07/12 07:40:32;;;;;;;;;;;;;;;23.78;73.79;97219.13;616632;230;67131;-59
2023/07/12 07:43:00;;;;;;;;;;;;;;;23.78;73.79;97208.39;617809;227;66819;-59
2023/07/12 07:45:27;;;;;;;;;;;;;;;23.78;73.77;97208.39;619946;229;65136;-59
2023/07/12 07:47:55;;;;;;;;;;;;;;;23.78;73.83;97213.77;619902;229;64296;-62
2023/07/12 07:50:22;;;;;;;;;;;;;;;23.77;73.80;97215.66;619886;229;64577;-59
2023/07/12 07:52:53;;;;;;;;;;;;;;;23.78;73.82;97213.77;619918;229;62882;-63
2023/07/12 07:55:19;;;;;;;;;;;;;;;23.80;73.31;97207.03;619904;229;64670;-61
2023/07/12 07:57:46;;;;;;;;;;;;;;;23.81;72.67;97215.88;619937;229;64704;-61
2023/07/12 08:00:14;;;;;;;;;;;;;;;23.83;72.63;97217.19;619864;229;63822;-61
2023/07/12 08:02:43;;;;;;;;;;;;;;;23.83;72.85;97227.93;619889;229;66943;-61
2023/07/12 08:05:11;;;;;;;;;;;;;;;23.84;72.79;97217.98;619859;229;66769;-61
2023/07/12 08:07:43;;;;;;;;;;;;;;;23.83;72.68;97227.93;619870;224;64996;-61
2023/07/12 08:10:12;;;;;;;;;;;;;;;23.85;72.73;97227.66;620953;224;66999;-63
2023/07/12 08:12:40;;;;;;;;;;;;;;;23.83;72.67;97217.19;620186;224;66796;-61
2023/07/12 08:15:09;;;;;;;;;;;;;;;23.83;71.74;97216.40;619558;227;64859;-61
2023/07/12 08:17:37;;;;;;;;;;;;;;;23.84;72.62;97221.47;619637;227;66711;-61
2023/07/12 08:20:05;;;;;;;;;;;;;;;23.83;73.29;97221.77;620484;224;64874;-62
2023/07/12 08:22:33;;;;;;;;;;;;;;;23.83;73.37;97229.82;622176;227;64882;-61
2023/07/12 08:25:00;;;;;;;;;;;;;;;23.85;72.67;97227.66;618160;224;66756;-61
2023/07/12 08:27:30;;;;;;;;;;;;;;;23.84;72.77;97223.36;619475;224;64712;-61
2023/07/12 08:30:00;;;;;;;;;;;;;;;23.84;73.03;97223.36;617046;227;65239;-61
2023/07/12 08:32:29;;;;;;;;;;;;;;;23.83;73.37;97222.56;622187;227;66598;-60
2023/07/12 08:34:58;;;;;;;;;;;;;;;23.84;73.36;97220.67;616850;227;64360;-61
2023/07/12 08:37:25;;;;;;;;;;;;;;;23.83;73.26;97211.83;616679;230;65030;-60
2023/07/12 08:39:54;;;;;;;;;;;;;;;23.83;73.18;97219.87;616637;230;66731;-61
2023/07/12 08:42:23;;;;;;;;;;;;;;;23.84;73.20;97223.36;616926;224;64742;-60
2023/07/12 08:44:51;;;;;;;;;;;;;;;23.83;73.24;97222.56;620167;227;62694;-60
2023/07/12 08:47:22;;;;;;;;;;;;;;;23.83;73.20;97227.93;616554;230;64363;-61
2023/07/12 08:49:50;;;;;;;;;;;;;;;23.84;73.24;97223.36;616564;230;66816;-61
2023/07/12 08:52:22;;;;;;;;;;;;;;;23.84;73.24;97234.88;617540;224;66425;-61
2023/07/12 08:54:49;;;;;;;;;;;;;;;23.84;73.27;97231.41;621415;224;63965;-64
2023/07/12 08:57:18;;;;;;;;;;;;;;;23.83;73.27;97235.98;619749;224;64711;-66
2023/07/12 09:00:05;;;;;;;;;;;;;;;23.85;73.33;97235.71;619742;227;65050;-65
2023/07/12 09:02:33;;;;;;;;;;;;;;;23.84;73.26;97236.77;616531;230;66923;-60
2023/07/12 09:05:02;;;;;;;;;;;;;;;23.84;73.07;97229.52;617587;224;66827;-60
2023/07/12 09:07:31;;;;;;;;;;;;;;;23.84;72.95;97234.88;617020;224;64509;-59
2023/07/12 09:09:59;;;;;;;;;;;;;;;23.85;72.88;97233.82;618363;224;64676;-61
2023/07/12 09:12:28;;;;;;;;;;;;;;;23.85;73.11;97235.71;618083;224;64716;-60
2023/07/12 09:14:58;;;;;;;;;;;;;;;23.85;73.22;97222.29;625102;226;65046;-60
2023/07/12 09:17:27;;;;;;;;;;;;;;;23.84;73.17;97229.52;620388;226;64313;-61
2023/07/12 09:19:55;;;;;;;;;;;;;;;23.85;73.21;97236.50;620420;227;66831;-61
2023/07/12 09:22:22;;;;;;;;;;;;;;;23.85;73.12;97231.14;617877;229;65107;-62
2023/07/12 09:24:55;;;;;;;;;;;;;;;23.86;73.22;97239.98;617940;229;66677;-61
2023/07/12 09:27:24;;;;;;;;;;;;;;;23.86;73.29;97239.98;618870;227;64862;-60
2023/07/12 09:30:01;;;;;;;;;;;;;;;23.85;73.25;97236.50;621572;227;63122;-60
2023/07/12 09:32:31;;;;;;;;;;;;;;;23.85;73.17;97236.50;623602;227;66937;-61
2023/07/12 09:34:59;;;;;;;;;;;;;;;23.85;73.15;97231.14;618847;227;66608;-61
2023/07/12 09:37:28;;;;;;;;;;;;;;;23.86;73.15;97234.61;618016;229;64834;-60
2023/07/12 09:39:59;;;;;;;;;;;;;;;23.86;73.19;97237.30;621767;227;66941;-60
2023/07/12 09:42:28;;;;;;;;;;;;;;;23.86;73.22;97242.66;622058;227;67298;-60
2023/07/12 09:44:57;;;;;;;;;;;;;;;23.85;73.29;97239.19;623318;227;65116;-64
2023/07/12 09:47:34;;;;;;;;;;;;;;;23.85;73.28;97241.08;625141;227;66881;-64
2023/07/12 09:50:18;;;;;;;;;;;;;;;23.86;73.33;97239.98;625178;227;64545;-65
2023/07/12 09:52:47;;;;;;;;;;;;;;;23.86;73.37;97239.98;624930;226;65070;-65
2023/07/12 09:55:19;;;;;;;;;;;;;;;23.85;73.37;97231.14;625041;226;66943;-62
2023/07/12 09:57:58;;;;;;;;;;;;;;;23.86;73.24;97231.93;625045;226;67466;-61
2023/07/12 10:00:29;;;;;;;;;;;;;;;23.86;73.27;97221.20;624614;226;46300;-61
2023/07/12 10:03:14;;;;;;;;;;;;;;;23.86;73.32;97226.56;618668;227;66534;-61
2023/07/12 10:05:43;;;;;;;;;;;;;;;23.86;73.37;97221.20;625135;227;66851;-61
2023/07/12 10:08:12;;;;;;;;;;;;;;;23.86;73.37;97210.46;625125;227;63028;-61
2023/07/12 10:10:41;;;;;;;;;;;;;;;23.86;73.26;97208.57;625127;227;64997;-59
2023/07/12 10:13:23;;;;;;;;;;;;;;;23.85;73.19;97204.30;622398;225;64699;-62
2023/07/12 10:15:51;;;;;;;;;;;;;;;23.86;73.14;97207.77;616860;225;64819;-59
2023/07/12 10:18:19;;;;;;;;;;;;;;;23.86;71.80;97207.77;615964;230;66905;-60
2023/07/12 10:20:48;;;;;;;;;;;;;;;23.88;72.48;97192.20;616007;230;64653;-60
2023/07/12 10:23:17;;;;;;;;;;;;;;;23.86;73.17;97205.88;616024;227;65052;-60
2023/07/12 10:25:48;;;;;;;;;;;;;;;23.88;73.31;97202.93;615993;230;66832;-60
2023/07/12 10:28:17;;;;;;;;;;;;;;;23.85;73.39;97204.30;615811;229;64757;-60
2023/07/12 10:30:46;;;;;;;;;;;;;;;23.86;73.39;97205.88;615833;230;62900;-60
2023/07/12 10:33:21;;;;;;;;;;;;;;;23.86;73.42;97210.46;616000;230;64699;-61
2023/07/12 10:35:59;;;;;;;;;;;;;;;23.86;73.43;97207.77;616021;230;66799;-60
2023/07/12 10:38:28;;;;;;;;;;;;;;;23.86;73.41;97207.77;615959;230;65120;-63
2023/07/12 10:41:00;;;;;;;;;;;;;;;23.87;73.43;97217.41;615987;230;66890;-64
2023/07/12 10:43:29;;;;;;;;;;;;;;;23.86;73.49;97205.88;615945;229;66871;-65
2023/07/12 10:45:58;;;;;;;;;;;;;;;23.89;71.98;97207.20;615946;230;65049;-61
2023/07/12 10:48:27;;;;;;;;;;;;;;;23.90;72.16;97195.41;615882;230;67054;-63
2023/07/12 10:50:56;;;;;;;;;;;;;;;23.89;72.71;97194.58;616051;230;66480;-62
2023/07/12 10:53:28;;;;;;;;;;;;;;;23.89;73.27;97208.00;615952;230;65040;-63
2023/07/12 10:55:57;;;;;;;;;;;;;;;23.89;73.33;97189.21;615929;230;66943;-63
2023/07/12 10:58:26;;;;;;;;;;;;;;;23.88;73.31;97189.52;615947;230;64947;-63
2023/07/12 11:00:58;;;;;;;;;;;;;;;23.88;73.21;97181.46;616003;230;65066;-63
2023/07/12 11:03:33;;;;;;;;;;;;;;;23.88;73.20;97182.25;615986;230;64479;-63
2023/07/12 11:06:05;;;;;;;;;;;;;;;23.88;73.07;97176.88;615989;230;66832;-62
2023/07/12 11:08:35;;;;;;;;;;;;;;;23.88;72.97;97170.72;616014;230;63025;-62
2023/07/12 11:11:06;;;;;;;;;;;;;;;23.90;72.92;97173.93;615921;230;69274;-63
2023/07/12 11:13:37;;;;;;;;;;;;;;;23.90;72.94;97179.30;614514;230;64642;-61
2023/07/12 11:16:03;;;;;;;;;;;;;;;;;;616475;230;62956;-61
2023/07/12 11:18:30;;;;;;;;;;;;;;;;;;616645;230;63339;-61
2023/07/12 11:21:04;;;;;;;;;;;;;;;23.90;72.86;97171.25;616652;230;67010;-61
2023/07/12 11:23:46;;;;;;;;;;;;;;;23.91;72.91;97175.52;616592;230;65108;-61
2023/07/12 11:26:21;;;;;;;;;;;;;;;23.90;72.86;97168.56;616563;230;67260;-61
2023/07/12 11:28:48;;;;;;;;;;;;;;;23.91;72.95;97170.15;616599;230;64652;-61
2023/07/12 11:31:20;;;;;;;;;;;;;;;23.90;72.88;97163.19;616576;230;65086;-60
2023/07/12 11:33:49;;;;;;;;;;;;;;;23.89;72.88;97165.05;616551;230;66913;-61
2023/07/12 11:36:19;;;;;;;;;;;;;;;23.91;72.73;97165.57;616399;230;64651;-61
2023/07/12 11:38:49;;;;;;;;;;;;;;;23.91;72.76;97154.05;616614;230;65002;-61
2023/07/12 11:41:18;;;;;;;;;;;;;;;23.91;72.69;97154.05;616614;230;67019;-61
2023/07/12 11:43:45;;;;;;;;;;;;;;;23.91;72.72;97152.16;616616;230;67414;-61
2023/07/12 11:46:20;;;;;;;;;;;;;;;23.92;72.67;97166.37;616553;230;62859;-61
2023/07/12 11:48:51;;;;;;;;;;;;;;;23.92;72.59;97163.69;616615;230;66981;-61
2023/07/12 11:51:20;;;;;;;;;;;;;;;23.92;72.65;97156.42;616615;230;66888;-60
2023/07/12 11:53:52;;;;;;;;;;;;;;;23.92;72.63;97161.80;616526;230;65074;-60
2023/07/12 11:56:19;;;;;;;;;;;;;;;23.93;72.71;97162.62;616603;230;66817;-60
2023/07/12 11:58:47;;;;;;;;;;;;;;;23.92;72.48;97161.00;616623;230;64672;-60
2023/07/12 12:01:15;;;;;;;;;;;;;;;23.92;72.54;97161.00;616590;230;63097;-61
2023/07/12 12:03:43;;;;;;;;;;;;;;;23.92;72.68;97156.42;616639;230;66975;-60
2023/07/12 12:06:12;;;;;;;;;;;;;;;23.94;72.78;97153.47;616588;230;65154;-61
2023/07/12 12:08:41;;;;;;;;;;;;;;;23.92;72.67;97151.05;616565;230;62760;-61
2023/07/12 12:11:10;;;;;;;;;;;;;;;23.93;72.52;97158.04;616584;230;64666;-62
2023/07/12 12:13:53;;;;;;;;;;;;;;;23.93;72.54;97162.62;616605;230;67093;-61
2023/07/12 12:16:23;;;;;;;;;;;;;;;23.93;72.49;97157.25;616573;230;65087;-59
2023/07/12 12:18:52;;;;;;;;;;;;;;;23.94;72.53;97150.78;616634;230;64537;-63
2023/07/12 12:21:20;;;;;;;;;;;;;;;23.94;72.27;97153.47;616578;230;66740;-64
2023/07/12 12:23:52;;;;;;;;;;;;;;;23.94;71.96;97150.78;616630;230;65033;-63
2023/07/12 12:26:21;;;;;;;;;;;;;;;23.96;71.87;97137.09;616638;230;64808;-64
2023/07/12 12:28:53;;;;;;;;;;;;;;;23.96;71.26;97140.56;616661;230;66487;-60
2023/07/12 12:31:21;;;;;;;;;;;;;;;23.97;70.84;97144.84;616606;230;62803;-60
2023/07/12 12:33:52;;;;;;;;;;;;;;;23.97;71.90;97147.52;616598;230;49679;-60
2023/07/12 12:36:24;;;;;;;;;;;;;;;23.96;71.85;97145.94;611423;230;66602;-63
2023/07/12 12:38:54;;;;;;;;;;;;;;;23.96;71.87;97150.51;616612;230;65070;-63
2023/07/12 12:41:21;;;;;;;;;;;;;;;23.97;71.86;97152.89;616642;230;66870;-63
2023/07/12 12:43:55;;;;;;;;;;;;;;;23.97;71.72;97142.16;616556;230;66543;-63
2023/07/12 12:46:23;;;;;;;;;;;;;;;23.98;71.46;97135.72;616598;230;65062;-63
2023/07/12 12:48:52;;;;;;;;;;;;;;;24.00;71.48;97130.05;616656;230;66640;-63
2023/07/12 12:51:19;;;;;;;;;;;;;;;23.99;71.31;97134.63;616598;230;66372;-64
2023/07/12 12:53:47;;;;;;;;;;;;;;;23.99;71.30;97131.94;616642;230;62948;-61
2023/07/12 12:56:16;;;;;;;;;;;;;;;23.99;71.15;97123.88;616548;230;49280;-61
2023/07/12 12:58:44;;;;;;;;;;;;;;;23.99;71.25;97129.25;616605;230;64653;-61
2023/07/12 13:01:14;;;;;;;;;;;;;;;23.99;71.16;97129.25;616621;230;62992;-62
2023/07/12 13:03:41;;;;;;;;;;;;;;;23.99;71.24;97129.25;616569;230;64688;-63
2023/07/12 13:06:10;;;;;;;;;;;;;;;24.00;71.22;97124.67;616621;230;64719;-61
2023/07/12 13:08:38;;;;;;;;;;;;;;;24.00;71.15;97119.30;616401;230;62885;-60